createdAt,value
2019-01-06T00:00:58.356Z,19.62
2019-01-06T00:03:45.196Z,20.50
2019-01-06T00:06:36.341Z,22.65
2019-01-06T00:09:29.848Z,21.10
2019-01-06T00:12:20.853Z,29.35
2019-01-06T00:15:07.870Z,18.82
2019-01-06T00:18:14.852Z,17.23
2019-01-06T00:21:01.807Z,17.90
2019-01-06T00:23:48.858Z,18.10
2019-01-06T00:26:43.438Z,18.20
2019-01-06T00:29:30.346Z,17.10
2019-01-06T00:32:17.408Z,21.33
2019-01-06T00:35:04.424Z,17.20
2019-01-06T00:37:47.330Z,20.40
2019-01-06T00:40:48.694Z,16.93
2019-01-06T00:43:32.634Z,25.00
2019-01-06T00:46:35.947Z,16.85
2019-01-06T00:49:24.433Z,19.50
2019-01-06T00:52:12.604Z,17.07
2019-01-06T00:54:59.932Z,16.95
2019-01-06T00:57:51.118Z,17.50
2019-01-06T01:00:32.286Z,17.07
2019-01-06T01:03:20.507Z,15.85
2019-01-06T01:06:10.488Z,12.75
2019-01-06T01:08:57.509Z,16.23
2019-01-06T01:11:50.715Z,20.00
2019-01-06T01:14:46.252Z,17.90
2019-01-06T01:17:44.878Z,19.00
2019-01-06T01:20:22.203Z,21.75
2019-01-06T01:23:13.482Z,16.97
2019-01-06T01:26:07.674Z,24.20
2019-01-06T01:29:07.491Z,19.23
2019-01-06T01:32:10.881Z,24.05
2019-01-06T01:35:05.063Z,19.73
2019-01-06T01:37:53.229Z,16.62
2019-01-06T01:40:53.483Z,21.70
2019-01-06T01:43:47.633Z,14.75
2019-01-06T01:46:35.869Z,17.95
2019-01-06T01:49:24.713Z,22.15
2019-01-06T01:52:06.941Z,20.37
2019-01-06T01:54:51.895Z,18.82
2019-01-06T01:57:43.147Z,18.17
2019-01-06T02:00:34.403Z,22.00
2019-01-06T02:03:25.411Z,21.82
2019-01-06T02:06:13.147Z,26.00
2019-01-06T02:08:56.143Z,18.40
2019-01-06T02:11:51.984Z,20.52
2019-01-06T02:14:38.817Z,22.20
2019-01-06T02:17:25.969Z,17.12
2019-01-06T02:20:13.037Z,17.40
2019-01-06T02:23:00.113Z,18.45
2019-01-06T02:25:47.121Z,18.07
2019-01-06T02:28:41.113Z,21.17
2019-01-06T02:31:38.450Z,18.70
2019-01-06T02:34:29.451Z,19.90
2019-01-06T02:37:19.787Z,15.78
2019-01-06T02:40:17.013Z,18.70
2019-01-06T02:43:04.051Z,15.60
2019-01-06T02:45:51.103Z,16.35
2019-01-06T02:48:48.390Z,19.25
2019-01-06T02:51:34.897Z,21.20
2019-01-06T02:54:29.311Z,19.50
2019-01-06T02:57:20.571Z,16.20
2019-01-06T03:00:26.913Z,19.73
2019-01-06T03:03:24.184Z,22.45
2019-01-06T03:06:10.933Z,19.30
2019-01-06T03:09:14.226Z,23.52
2019-01-06T03:12:08.598Z,20.02
2019-01-06T03:14:52.398Z,24.63
2019-01-06T03:17:39.498Z,25.52
2019-01-06T03:20:26.575Z,23.85
2019-01-06T03:23:13.389Z,19.48
2019-01-06T03:26:00.441Z,25.30
2019-01-06T03:28:51.702Z,19.75
2019-01-06T03:31:34.621Z,20.70
2019-01-06T03:34:27.994Z,18.50
2019-01-06T03:37:12.030Z,21.35
2019-01-06T03:40:09.321Z,17.07
2019-01-06T03:43:06.811Z,17.65
2019-01-06T03:46:10.480Z,16.10
2019-01-06T03:48:54.778Z,16.82
2019-01-06T03:51:41.890Z,18.12
2019-01-06T03:54:45.508Z,22.05
2019-01-06T03:57:32.869Z,19.60
2019-01-06T04:00:19.687Z,19.07
2019-01-06T04:03:17.100Z,15.50
2019-01-06T04:06:14.737Z,24.02
2019-01-06T04:09:01.721Z,22.62
2019-01-06T04:11:50.108Z,16.40
2019-01-06T04:14:41.178Z,24.72
2019-01-06T04:17:47.813Z,15.75
2019-01-06T04:20:47.385Z,13.83
2019-01-06T04:23:44.852Z,21.02
2019-01-06T04:26:33.092Z,18.25
2019-01-06T04:29:39.471Z,19.10
2019-01-06T04:32:27.704Z,19.95
2019-01-06T04:35:15.913Z,23.30
2019-01-06T04:38:02.785Z,16.80
2019-01-06T04:40:53.809Z,16.90
2019-01-06T04:43:45.151Z,20.05
2019-01-06T04:46:37.537Z,14.38
2019-01-06T04:49:23.545Z,14.60
2019-01-06T04:52:11.922Z,27.87
2019-01-06T04:54:59.573Z,17.90
2019-01-06T04:57:42.761Z,17.10
2019-01-06T05:00:35.112Z,14.10
2019-01-06T05:03:22.288Z,17.95
2019-01-06T05:06:03.802Z,17.82
2019-01-06T05:08:50.941Z,15.85
2019-01-06T05:11:54.557Z,23.18
2019-01-06T05:14:42.832Z,20.17
2019-01-06T05:17:29.742Z,19.87
2019-01-06T05:20:16.745Z,20.35
2019-01-06T05:23:03.136Z,15.75
2019-01-06T05:25:54.153Z,21.60
2019-01-06T05:28:41.075Z,18.67
2019-01-06T05:31:28.112Z,17.25
2019-01-06T05:34:19.473Z,22.65
2019-01-06T05:37:13.440Z,17.65
2019-01-06T05:40:05.040Z,21.82
2019-01-06T05:42:51.748Z,18.45
2019-01-06T05:45:43.019Z,18.02
2019-01-06T05:48:29.856Z,25.62
2019-01-06T05:51:36.575Z,23.27
2019-01-06T05:54:27.543Z,24.30
2019-01-06T05:57:30.954Z,20.40
2019-01-06T06:00:34.126Z,21.97
2019-01-06T06:03:14.018Z,19.12
2019-01-06T06:06:08.234Z,19.52
2019-01-06T06:08:56.431Z,25.75
2019-01-06T06:11:50.454Z,21.70
2019-01-06T06:14:37.442Z,23.38
2019-01-06T06:17:44.055Z,18.87
2019-01-06T06:20:45.173Z,21.02
2019-01-06T06:23:32.011Z,19.15
2019-01-06T06:26:19.062Z,18.70
2019-01-06T06:29:13.393Z,20.00
2019-01-06T06:32:00.573Z,19.07
2019-01-06T06:34:48.782Z,21.05
2019-01-06T06:37:35.644Z,22.87
2019-01-06T06:40:24.191Z,20.75
2019-01-06T06:43:24.278Z,18.75
2019-01-06T06:46:12.428Z,21.82
2019-01-06T06:49:12.956Z,22.13
2019-01-06T06:51:59.970Z,23.73
2019-01-06T06:54:57.782Z,22.45
2019-01-06T06:58:33.552Z,25.30
2019-01-06T07:01:55.429Z,26.40
2019-01-06T07:04:50.583Z,24.20
2019-01-06T07:07:37.650Z,20.20
2019-01-06T07:10:28.881Z,23.95
2019-01-06T07:13:15.808Z,22.65
2019-01-06T07:16:02.891Z,25.85
2019-01-06T07:18:50.261Z,27.20
2019-01-06T07:21:47.808Z,20.62
2019-01-06T07:24:35.130Z,22.17
2019-01-06T07:27:23.325Z,20.88
2019-01-06T07:30:10.185Z,22.32
2019-01-06T07:32:58.378Z,17.92
2019-01-06T07:35:46.425Z,21.65
2019-01-06T07:38:40.600Z,22.13
2019-01-06T07:41:28.785Z,22.27
2019-01-06T07:44:12.056Z,23.77
2019-01-06T07:46:58.853Z,22.02
2019-01-06T07:50:02.537Z,22.05
2019-01-06T07:52:51.466Z,22.55
2019-01-06T07:55:38.457Z,21.07
2019-01-06T07:58:18.636Z,22.13
2019-01-06T08:01:05.676Z,28.12
2019-01-06T08:03:52.981Z,20.45
2019-01-06T08:06:49.508Z,19.45
2019-01-06T08:09:50.090Z,23.45
2019-01-06T08:12:44.094Z,22.13
2019-01-06T08:15:37.036Z,26.57
2019-01-06T08:18:25.243Z,28.62
2019-01-06T08:21:12.275Z,29.27
2019-01-06T08:24:06.589Z,29.55
2019-01-06T08:27:08.221Z,35.38
2019-01-06T08:29:55.310Z,29.25
2019-01-06T08:33:02.060Z,42.53
2019-01-06T08:35:43.574Z,31.80
2019-01-06T08:38:51.311Z,47.80
2019-01-06T08:41:38.373Z,40.58
2019-01-06T08:44:25.667Z,41.88
2019-01-06T08:47:12.741Z,32.80
2019-01-06T08:49:51.998Z,36.40
2019-01-06T08:52:39.105Z,29.82
2019-01-06T08:55:36.689Z,37.88
2019-01-06T08:58:24.933Z,32.53
2019-01-06T09:01:11.797Z,34.55
2019-01-06T09:04:12.365Z,30.05
2019-01-06T09:07:00.539Z,32.85
2019-01-06T09:09:47.447Z,34.00
2019-01-06T09:12:30.665Z,36.05
2019-01-06T09:15:14.722Z,38.30
2019-01-06T09:18:12.115Z,41.33
2019-01-06T09:20:59.579Z,34.30
2019-01-06T09:23:46.680Z,31.23
2019-01-06T09:26:33.371Z,31.05
2019-01-06T09:29:23.417Z,35.43
2019-01-06T09:32:23.886Z,33.28
2019-01-06T09:35:11.663Z,33.05
2019-01-06T09:38:18.199Z,34.23
2019-01-06T09:41:18.283Z,37.58
2019-01-06T09:44:13.204Z,31.42
2019-01-06T09:47:10.389Z,33.63
2019-01-06T09:50:10.906Z,34.55
2019-01-06T09:53:05.061Z,32.88
2019-01-06T09:55:56.429Z,35.92
2019-01-06T09:58:45.202Z,38.88
2019-01-06T10:01:33.868Z,35.78
2019-01-06T10:04:38.812Z,38.35
2019-01-06T10:07:20.215Z,41.53
2019-01-06T10:10:06.712Z,41.90
2019-01-06T10:12:53.565Z,34.98
2019-01-06T10:15:55.599Z,29.57
2019-01-06T10:19:01.957Z,33.25
2019-01-06T10:21:50.123Z,28.83
2019-01-06T10:24:41.468Z,33.58
2019-01-06T10:27:41.532Z,31.10
2019-01-06T10:30:36.854Z,31.07
2019-01-06T10:33:17.895Z,28.57
2019-01-06T10:36:18.237Z,29.15
2019-01-06T10:39:29.355Z,25.60
2019-01-06T10:42:20.326Z,24.67
2019-01-06T10:45:07.174Z,29.95
2019-01-06T10:48:01.712Z,25.68
2019-01-06T10:50:48.526Z,22.25
2019-01-06T10:53:38.865Z,24.65
2019-01-06T10:56:30.553Z,24.27
2019-01-06T10:59:34.157Z,23.87
2019-01-06T11:02:20.869Z,23.15
2019-01-06T11:05:15.349Z,24.02
2019-01-06T11:08:18.950Z,23.77
2019-01-06T11:11:06.257Z,28.85
2019-01-06T11:13:57.467Z,29.87
2019-01-06T11:16:45.698Z,27.65
2019-01-06T11:19:32.757Z,24.72
2019-01-06T11:22:19.920Z,29.20
2019-01-06T11:25:20.563Z,27.75
2019-01-06T11:28:10.706Z,28.80
2019-01-06T11:30:57.480Z,32.05
2019-01-06T11:33:44.745Z,32.23
2019-01-06T11:36:27.103Z,28.47
2019-01-06T11:39:30.683Z,30.48
2019-01-06T11:42:33.946Z,30.00
2019-01-06T11:45:25.222Z,31.77
2019-01-06T11:48:20.922Z,32.90
2019-01-06T11:51:24.307Z,31.93
2019-01-06T11:54:18.671Z,32.53
2019-01-06T11:57:14.181Z,39.40
2019-01-06T12:00:14.311Z,32.40
2019-01-06T12:03:05.617Z,34.65
2019-01-06T12:06:02.465Z,32.53
2019-01-06T12:09:03.193Z,35.13
2019-01-06T12:11:53.395Z,31.85
2019-01-06T12:14:50.910Z,35.60
2019-01-06T12:17:55.141Z,39.58
2019-01-06T12:20:51.265Z,30.27
2019-01-06T12:23:38.085Z,36.35
2019-01-06T12:26:26.346Z,36.55
2019-01-06T12:29:18.896Z,34.33
2019-01-06T12:32:13.111Z,30.50
2019-01-06T12:35:00.412Z,32.58
2019-01-06T12:37:54.673Z,31.62
2019-01-06T12:40:41.693Z,31.25
2019-01-06T12:43:29.183Z,30.25
2019-01-06T12:46:22.975Z,31.65
2019-01-06T12:49:16.328Z,37.80
2019-01-06T12:52:07.331Z,28.77
2019-01-06T12:54:55.536Z,31.68
2019-01-06T12:57:44.482Z,28.65
2019-01-06T13:00:35.435Z,33.53
2019-01-06T13:03:24.606Z,31.30
2019-01-06T13:06:11.969Z,29.32
2019-01-06T13:08:59.166Z,40.35
2019-01-06T13:11:50.462Z,32.70
2019-01-06T13:14:37.569Z,28.80
2019-01-06T13:17:26.277Z,37.30
2019-01-06T13:20:13.512Z,29.85
2019-01-06T13:23:04.876Z,29.98
2019-01-06T13:26:01.007Z,30.27
2019-01-06T13:28:48.473Z,27.98
2019-01-06T13:31:35.532Z,32.35
2019-01-06T13:34:32.657Z,33.10
2019-01-06T13:37:21.210Z,29.57
2019-01-06T13:40:10.433Z,33.23
2019-01-06T13:43:10.667Z,33.53
2019-01-06T13:46:05.003Z,30.00
2019-01-06T13:48:53.368Z,37.05
2019-01-06T13:51:59.806Z,35.70
2019-01-06T13:54:59.742Z,39.95
2019-01-06T13:57:52.322Z,41.18
2019-01-06T14:00:35.420Z,36.68
2019-01-06T14:03:23.669Z,31.73
2019-01-06T14:06:11.891Z,38.48
2019-01-06T14:09:03.303Z,38.30
2019-01-06T14:12:06.478Z,30.27
2019-01-06T14:14:53.957Z,31.93
2019-01-06T14:17:50.622Z,38.78
2019-01-06T14:20:38.332Z,36.17
2019-01-06T14:23:32.948Z,36.48
2019-01-06T14:26:25.038Z,34.65
2019-01-06T14:29:11.847Z,31.95
2019-01-06T14:32:02.921Z,28.80
2019-01-06T14:34:41.347Z,27.32
2019-01-06T14:37:28.547Z,25.37
2019-01-06T14:40:15.749Z,27.90
2019-01-06T14:43:19.514Z,25.30
2019-01-06T14:46:20.208Z,27.00
2019-01-06T14:49:08.422Z,29.75
2019-01-06T14:51:56.921Z,28.45
2019-01-06T14:54:43.891Z,28.02
2019-01-06T14:57:30.979Z,28.45
2019-01-06T15:00:28.427Z,31.70
2019-01-06T15:03:22.750Z,30.60
2019-01-06T15:06:23.649Z,35.70
2019-01-06T15:09:22.973Z,33.75
2019-01-06T15:12:14.014Z,39.50
2019-01-06T15:15:03.616Z,40.33
2019-01-06T15:18:01.645Z,36.83
2019-01-06T15:20:50.009Z,37.13
2019-01-06T15:23:37.131Z,40.92
2019-01-06T15:26:31.184Z,38.88
2019-01-06T15:29:18.146Z,39.08
2019-01-06T15:32:06.364Z,52.10
2019-01-06T15:35:06.812Z,40.03
2019-01-06T15:37:45.006Z,41.53
2019-01-06T15:40:33.228Z,42.03
2019-01-06T15:43:30.266Z,43.30
2019-01-06T15:46:18.510Z,46.42
2019-01-06T15:49:13.750Z,66.87
2019-01-06T15:52:08.654Z,41.60
2019-01-06T15:54:58.098Z,43.33
2019-01-06T15:57:45.241Z,45.03
2019-01-06T16:00:32.025Z,42.88
2019-01-06T16:03:23.628Z,44.03
2019-01-06T16:06:11.139Z,41.37
2019-01-06T16:09:06.085Z,42.95
2019-01-06T16:11:54.126Z,42.53
2019-01-06T16:14:45.225Z,40.15
2019-01-06T16:17:32.083Z,40.33
2019-01-06T16:20:19.810Z,44.50
2019-01-06T16:23:07.333Z,40.60
2019-01-06T16:26:11.049Z,39.10
2019-01-06T16:29:09.101Z,41.40
2019-01-06T16:32:12.767Z,36.75
2019-01-06T16:34:59.374Z,41.88
2019-01-06T16:38:02.074Z,39.05
2019-01-06T16:40:41.083Z,38.67
2019-01-06T16:43:40.745Z,39.05
2019-01-06T16:46:44.121Z,40.70
2019-01-06T16:49:33.741Z,36.38
2019-01-06T16:52:20.611Z,36.70
2019-01-06T16:55:11.875Z,40.28
2019-01-06T16:58:09.340Z,46.75
2019-01-06T17:00:57.719Z,46.18
2019-01-06T17:03:46.372Z,41.73
2019-01-06T17:06:34.639Z,43.92
2019-01-06T17:09:23.425Z,40.78
2019-01-06T17:12:10.490Z,40.60
2019-01-06T17:14:52.068Z,39.90
2019-01-06T17:17:38.606Z,40.85
2019-01-06T17:20:25.422Z,44.20
2019-01-06T17:23:13.468Z,41.48
2019-01-06T17:26:02.062Z,40.28
2019-01-06T17:28:51.222Z,42.08
2019-01-06T17:31:54.844Z,40.70
2019-01-06T17:34:43.104Z,41.05
2019-01-06T17:37:38.124Z,37.58
2019-01-06T17:40:20.627Z,37.33
2019-01-06T17:43:18.615Z,41.45
2019-01-06T17:46:22.481Z,36.45
2019-01-06T17:49:17.082Z,39.45
2019-01-06T17:52:06.869Z,79.12
2019-01-06T17:55:04.612Z,45.73
2019-01-06T17:58:13.737Z,60.08
2019-01-06T18:01:07.899Z,47.17
2019-01-06T18:04:13.959Z,128.72
2019-01-06T18:06:56.155Z,60.83
2019-01-06T18:09:57.191Z,43.15
2019-01-06T18:12:44.709Z,48.70
2019-01-06T18:15:45.633Z,36.15
2019-01-06T18:18:32.641Z,35.70
2019-01-06T18:21:39.183Z,105.92
2019-01-06T18:24:36.823Z,38.98
2019-01-06T18:27:23.559Z,64.17
2019-01-06T18:30:11.062Z,44.58
2019-01-06T18:33:12.125Z,42.05
2019-01-06T18:35:58.635Z,50.50
2019-01-06T18:38:46.795Z,44.27
2019-01-06T18:41:53.629Z,53.85
2019-01-06T18:44:51.172Z,50.78
2019-01-06T18:47:56.933Z,45.00
2019-01-06T18:50:45.511Z,44.05
2019-01-06T18:53:38.379Z,43.85
2019-01-06T18:56:26.613Z,107.55
2019-01-06T18:59:13.569Z,56.68
2019-01-06T19:02:04.513Z,50.50
2019-01-06T19:04:55.559Z,88.30
2019-01-06T19:07:52.843Z,46.85
2019-01-06T19:10:56.793Z,42.80
2019-01-06T19:13:46.949Z,65.05
2019-01-06T19:16:46.961Z,63.73
2019-01-06T19:19:35.826Z,83.47
2019-01-06T19:22:23.175Z,62.15
2019-01-06T19:25:10.246Z,47.25
2019-01-06T19:27:57.569Z,37.63
2019-01-06T19:31:06.487Z,51.00
2019-01-06T19:33:56.163Z,42.78
2019-01-06T19:37:02.833Z,47.00
2019-01-06T19:39:52.014Z,45.52
2019-01-06T19:42:53.093Z,53.00
2019-01-06T19:45:51.455Z,46.55
2019-01-06T19:48:55.657Z,45.48
2019-01-06T19:51:54.597Z,54.08
2019-01-06T19:54:41.485Z,88.97
2019-01-06T19:57:29.691Z,72.03
2019-01-06T20:00:18.794Z,54.15
2019-01-06T20:03:05.872Z,44.90
2019-01-06T20:05:53.410Z,49.08
2019-01-06T20:08:40.736Z,40.33
2019-01-06T20:11:28.034Z,39.73
2019-01-06T20:14:09.947Z,42.88
2019-01-06T20:17:14.273Z,42.70
2019-01-06T20:20:05.790Z,39.98
2019-01-06T20:23:06.166Z,43.55
2019-01-06T20:25:53.738Z,35.80
2019-01-06T20:28:48.383Z,40.63
2019-01-06T20:31:36.950Z,47.25
2019-01-06T20:34:25.774Z,43.98
2019-01-06T20:37:28.888Z,56.42
2019-01-06T20:40:18.903Z,47.35
2019-01-06T20:43:03.824Z,51.60
2019-01-06T20:45:51.090Z,38.40
2019-01-06T20:48:38.488Z,44.13
2019-01-06T20:51:25.789Z,39.83
2019-01-06T20:54:32.612Z,42.10
2019-01-06T20:57:23.981Z,43.98
2019-01-06T21:00:18.676Z,53.87
2019-01-06T21:03:22.098Z,39.27
2019-01-06T21:06:09.727Z,35.50
2019-01-06T21:08:57.500Z,42.90
2019-01-06T21:11:46.067Z,40.33
2019-01-06T21:14:47.733Z,43.65
2019-01-06T21:17:45.707Z,43.15
2019-01-06T21:20:38.211Z,45.95
2019-01-06T21:23:26.387Z,45.45
2019-01-06T21:26:32.884Z,47.90
2019-01-06T21:29:20.088Z,43.45
2019-01-06T21:32:08.398Z,38.08
2019-01-06T21:34:55.310Z,43.58
2019-01-06T21:37:43.909Z,42.35
2019-01-06T21:40:27.252Z,38.70
2019-01-06T21:43:14.323Z,42.13
2019-01-06T21:46:03.761Z,46.63
2019-01-06T21:49:01.176Z,45.28
2019-01-06T21:51:48.314Z,42.00
2019-01-06T21:54:54.496Z,46.60
2019-01-06T21:57:55.210Z,42.73
2019-01-06T22:00:46.854Z,40.88
2019-01-06T22:03:34.079Z,47.08
2019-01-06T22:06:31.887Z,38.55
2019-01-06T22:09:19.148Z,56.53
2019-01-06T22:12:28.099Z,41.77
2019-01-06T22:15:16.429Z,39.42
2019-01-06T22:18:20.088Z,40.73
2019-01-06T22:20:59.783Z,41.10
2019-01-06T22:23:46.822Z,46.88
2019-01-06T22:26:34.223Z,44.05
2019-01-06T22:29:37.688Z,41.77
2019-01-06T22:32:24.828Z,42.88
2019-01-06T22:35:11.995Z,51.50
2019-01-06T22:37:59.010Z,42.27
2019-01-06T22:40:56.379Z,43.70
2019-01-06T22:43:47.608Z,45.98
2019-01-06T22:46:30.376Z,44.70
2019-01-06T22:49:25.461Z,47.60
2019-01-06T22:52:12.649Z,43.30
2019-01-06T22:55:06.991Z,50.05
2019-01-06T22:58:07.103Z,45.20
2019-01-06T23:00:53.166Z,43.00
2019-01-06T23:03:40.043Z,61.23
2019-01-06T23:06:28.248Z,59.95
2019-01-06T23:09:28.611Z,54.45
2019-01-06T23:12:16.885Z,46.65
2019-01-06T23:15:08.112Z,42.25
2019-01-06T23:18:11.653Z,41.92
2019-01-06T23:21:02.740Z,49.13
2019-01-06T23:23:47.521Z,44.65
2019-01-06T23:26:50.775Z,46.35
2019-01-06T23:29:37.770Z,44.10
2019-01-06T23:32:35.047Z,47.13
2019-01-06T23:35:32.198Z,41.58
2019-01-06T23:38:17.332Z,47.88
2019-01-06T23:41:05.509Z,45.65
2019-01-06T23:43:52.724Z,46.83
2019-01-06T23:46:44.558Z,42.88
2019-01-06T23:49:33.890Z,44.67
2019-01-06T23:52:20.684Z,44.30
2019-01-06T23:55:07.995Z,43.98
2019-01-06T23:58:05.433Z,40.60
